^^
Lisbon, NH - Weather Station Historical Data
Daily Summary for July 18, 2021 Units:  English    Metric   Both
Daily Weekly Monthly Yearly
  High: Low: Average:
Temperature: 70.9 °F 62.4 °F 66.1 °F
Dew Point: 69.9 °F 62.4 °F 65.9 °F
Humidity: 100% 94.9% 100%
Wind Speed: 3mph 0mph 0.3mph
Wind Gust: 8mph - -
Wind- - NE
Pressure: 30.05 in 29.94 in -
Precipitation: 0.65 in    
 
 
Tabular Data for July 18, 2021
Time Temperature Dew Point Pressure Wind Wind Speed Wind Gust Humidity Rainfall Rate (Hourly) solar
00:04 65.2 °F 65.2 °F 30.04 in Calm   1 mph 100% 0.22 in 0 W/m2
00:09 65 °F 65 °F 30.04 in SW 0.1 mph 2 mph 100% 0.18 in 0 W/m2
00:14 64.9 °F 64.9 °F 30.05 in SSW 0.7 mph 2 mph 100% 0.18 in 0 W/m2
00:19 64.6 °F 64.6 °F 30.05 in ENE 0.7 mph 3 mph 100% 0.16 in 0 W/m2
00:24 64.3 °F 64.3 °F 30.05 in NE 0.8 mph 2 mph 100% 0.16 in 0 W/m2
00:29 64 °F 64 °F 30.05 in NNE 0.2 mph 2 mph 100% 0.14 in 0 W/m2
00:34 63.8 °F 63.8 °F 30.04 in NNE 1 mph 3 mph 100% 0.14 in 0 W/m2
00:39 63.5 °F 63.5 °F 30.04 in North 0.1 mph 3 mph 100% 0.10 in 0 W/m2
00:44 63.5 °F 63.5 °F 30.04 in NNE 0.5 mph 3 mph 100% 0.10 in 0 W/m2
00:49 63.2 °F 63.2 °F 30.04 in NE 1.2 mph 5 mph 100% 0.05 in 0 W/m2
00:54 62.9 °F 62.9 °F 30.04 in NNE 0.1 mph 1 mph 100% 0.05 in 0 W/m2
00:59 62.7 °F 62.7 °F 30.04 in NE 0.2 mph 2 mph 100% 0.03 in 0 W/m2
01:04 62.7 °F 62.7 °F 30.04 in Calm     100% 0.03 in 0 W/m2
01:09 62.6 °F 62.6 °F 30.04 in Calm     100% 0.03 in 0 W/m2
01:14 62.6 °F 62.6 °F 30.04 in NE 0.1 mph 1 mph 100% 0.03 in 0 W/m2
01:19 62.6 °F 62.6 °F 30.04 in NNE 0.1 mph 1 mph 100% 0.02 in 0 W/m2
01:24 62.7 °F 62.7 °F 30.04 in NNE 0.1 mph 1 mph 100% 0.03 in 0 W/m2
01:29 62.7 °F 62.7 °F 30.04 in NE 0.8 mph 3 mph 100% 0.04 in 0 W/m2
01:34 62.8 °F 62.8 °F 30.04 in NE 0.5 mph 2 mph 100% 0.05 in 0 W/m2
01:39 62.9 °F 62.9 °F 30.04 in NE 0.1 mph 2 mph 100% 0.06 in 0 W/m2
01:44 62.9 °F 62.9 °F 30.04 in NE 0.5 mph 2 mph 100% 0.07 in 0 W/m2
01:49 62.9 °F 62.9 °F 30.03 in NNE 0.9 mph 3 mph 100% 0.07 in 0 W/m2
01:54 62.7 °F 62.7 °F 30.03 in NE 0.4 mph 2 mph 100% 0.07 in 0 W/m2
01:59 62.7 °F 62.7 °F 30.03 in NE 0.3 mph 2 mph 100% 0.07 in 0 W/m2
02:04 62.7 °F 62.7 °F 30.02 in NE 0.3 mph 2 mph 100% 0.08 in 0 W/m2
02:09 62.7 °F 62.7 °F 30.02 in NE 0.1 mph 1 mph 100% 0.08 in 0 W/m2
02:14 62.7 °F 62.7 °F 30.02 in NE 0.3 mph 2 mph 100% 0.08 in 0 W/m2
02:19 62.7 °F 62.7 °F 30.02 in NE 0.6 mph 1 mph 100% 0.08 in 0 W/m2
02:24 62.6 °F 62.6 °F 30.02 in NE 0.7 mph 2 mph 100% 0.08 in 0 W/m2
02:29 62.7 °F 62.7 °F 30.02 in NE 0.4 mph 2 mph 100% 0.09 in 0 W/m2
02:34 62.7 °F 62.7 °F 30.01 in NE 0.3 mph 2 mph 100% 0.10 in 0 W/m2
02:39 62.6 °F 62.6 °F 30.01 in NNE 0.5 mph 2 mph 100% 0.08 in 0 W/m2
02:44 62.6 °F 62.6 °F 30.01 in NE 1 mph 3 mph 100% 0.08 in 0 W/m2
02:49 62.6 °F 62.6 °F 30.01 in NE 0.4 mph 3 mph 100% 0.07 in 0 W/m2
02:54 62.4 °F 62.4 °F 30.01 in NE 0.5 mph 2 mph 100% 0.07 in 0 W/m2
02:59 62.4 °F 62.4 °F 30.01 in Calm   2 mph 100% 0.07 in 0 W/m2
03:04 62.4 °F 62.4 °F 30.01 in NE 0.4 mph 3 mph 100% 0.07 in 0 W/m2
03:09 62.4 °F 62.4 °F 30.01 in NE 0.2 mph 3 mph 100% 0.07 in 0 W/m2
03:14 62.4 °F 62.4 °F 30.01 in NE 0.2 mph 2 mph 100% 0.07 in 0 W/m2
03:19 62.5 °F 62.5 °F 30.00 in Calm     100% 0.06 in 0 W/m2
03:24 62.6 °F 62.6 °F 30.00 in NE 0.1 mph 1 mph 100% 0.06 in 0 W/m2
03:29 62.6 °F 62.6 °F 30.00 in NE 0.1 mph 1 mph 100% 0.06 in 0 W/m2
03:34 62.6 °F 62.6 °F 29.99 in NE 1 mph 5 mph 100% 0.06 in 0 W/m2
03:39 62.6 °F 62.6 °F 29.99 in NE 0.5 mph 4 mph 100% 0.04 in 0 W/m2
03:44 62.9 °F 62.9 °F 29.99 in North 0.5 mph 2 mph 100% 0.04 in 0 W/m2
03:49 63.1 °F 63.1 °F 29.99 in NE 0.4 mph 3 mph 100% 0.04 in 0 W/m2
03:54 63.1 °F 63.1 °F 29.99 in NE 0.4 mph 2 mph 100% 0.05 in 0 W/m2
03:59 63.1 °F 63.1 °F 29.99 in NNE 0.3 mph 2 mph 100% 0.06 in 0 W/m2
04:04 63.1 °F 63.1 °F 29.99 in Calm     100% 0.06 in 0 W/m2
04:09 63.1 °F 63.1 °F 29.99 in NNE 0.5 mph 1 mph 100% 0.08 in 0 W/m2
04:14 62.9 °F 62.9 °F 29.99 in NNE 0.1 mph 1 mph 100% 0.08 in 0 W/m2
04:19 62.9 °F 62.9 °F 29.99 in Calm     100% 0.08 in 0 W/m2
04:24 62.9 °F 62.9 °F 29.99 in Calm     100% 0.08 in 0 W/m2
04:29 62.9 °F 62.9 °F 29.99 in Calm     100% 0.08 in 0 W/m2
04:34 63 °F 63 °F 29.99 in Calm     100% 0.08 in 0 W/m2
04:39 63.1 °F 63.1 °F 29.99 in Calm     100% 0.10 in 0 W/m2
04:44 63.1 °F 63.1 °F 29.99 in Calm     100% 0.12 in 0 W/m2
04:49 63.1 °F 63.1 °F 29.99 in Calm     100% 0.14 in 0 W/m2
04:54 63.1 °F 63.1 °F 29.99 in Calm     100% 0.14 in 0 W/m2
04:59 63.1 °F 63.1 °F 29.99 in Calm     100% 0.15 in 0 W/m2
05:04 63.1 °F 63.1 °F 29.99 in Calm     100% 0.15 in 0 W/m2
05:09 63.1 °F 63.1 °F 29.99 in Calm     100% 0.14 in 0 W/m2
05:14 63.1 °F 63.1 °F 29.99 in Calm     100% 0.14 in 0 W/m2
05:19 63.2 °F 63.2 °F 29.99 in Calm   1 mph 100% 0.12 in 0 W/m2
05:24 63.2 °F 63.2 °F 29.99 in Calm     100% 0.12 in 0 W/m2
05:29 63.2 °F 63.2 °F 29.99 in Calm     100% 0.11 in 0 W/m2
05:34 63.2 °F 63.2 °F 29.99 in NE 0.1 mph 1 mph 100% 0.12 in 0 W/m2
05:39 63.2 °F 63.2 °F 29.99 in NE 0.2 mph 1 mph 100% 0.12 in 5 W/m2
05:44 63.2 °F 63.2 °F 29.99 in NE 0.4 mph 2 mph 100% 0.12 in 7 W/m2
05:49 63.2 °F 63.2 °F 29.99 in Calm   1 mph 100% 0.10 in 7 W/m2
05:54 63.3 °F 63.3 °F 29.99 in Calm   1 mph 100% 0.10 in 9 W/m2
05:59 63.4 °F 63.4 °F 29.99 in Calm     100% 0.06 in 9 W/m2
06:04 63.4 °F 63.4 °F 29.99 in Calm     100% 0.06 in 7 W/m2
06:09 63.4 °F 63.4 °F 29.99 in Calm     100% 0.06 in 9 W/m2
06:14 63.4 °F 63.4 °F 30.00 in Calm     100% 0.06 in 11 W/m2
06:19 63.4 °F 63.4 °F 30.00 in Calm     100% 0.08 in 11 W/m2
06:24 63.4 °F 63.4 °F 30.00 in NE 0.1 mph 1 mph 100% 0.08 in 9 W/m2
06:29 63.5 °F 63.5 °F 30.00 in NE 0.1 mph 1 mph 100% 0.09 in 9 W/m2
06:34 63.5 °F 63.5 °F 30.00 in NE 0.3 mph 1 mph 100% 0.09 in 9 W/m2
06:39 63.5 °F 63.5 °F 30.00 in Calm   1 mph 100% 0.09 in 9 W/m2
06:44 63.5 °F 63.5 °F 30.00 in NE 0.1 mph 1 mph 100% 0.09 in 11 W/m2
06:49 63.5 °F 63.5 °F 30.00 in NE 0.1 mph 1 mph 100% 0.09 in 12 W/m2
06:54 63.7 °F 63.7 °F 30.00 in NE 0.2 mph 2 mph 100% 0.09 in 14 W/m2
06:59 63.7 °F 63.7 °F 30.00 in NE 0.3 mph 2 mph 100% 0.08 in 19 W/m2
07:04 63.8 °F 63.8 °F 29.99 in NE 0.3 mph 2 mph 100% 0.10 in 28 W/m2
07:09 63.9 °F 63.9 °F 29.99 in Calm   2 mph 100% 0.10 in 35 W/m2
07:14 63.9 °F 63.9 °F 29.99 in NE 0.1 mph 1 mph 100% 0.10 in 32 W/m2
07:19 63.9 °F 63.9 °F 29.99 in NE 0.1 mph 1 mph 100% 0.09 in 28 W/m2
07:24 64 °F 64 °F 29.99 in NE 0.5 mph 2 mph 100% 0.09 in 26 W/m2
07:29 64 °F 64 °F 29.99 in NE 0.4 mph 2 mph 100% 0.07 in 28 W/m2
07:34 64 °F 64 °F 29.99 in NE 0.2 mph 1 mph 100% 0.07 in 32 W/m2
07:39 64.2 °F 64.2 °F 29.99 in Calm   1 mph 100% 0.05 in 32 W/m2
07:44 64.2 °F 64.2 °F 29.99 in NE 0.4 mph 2 mph 100% 0.05 in 32 W/m2
07:49 64.2 °F 64.2 °F 29.99 in NNE 0.5 mph 3 mph 100% 0.05 in 35 W/m2
07:54 64.2 °F 64.2 °F 29.99 in NE 0.1 mph 2 mph 100% 0.05 in 35 W/m2
07:59 64.2 °F 64.2 °F 30.00 in NE 0.2 mph 2 mph 100% 0.05 in 35 W/m2
08:04 64.2 °F 64.2 °F 30.00 in NE 0.3 mph 2 mph 100% 0.05 in 42 W/m2
08:09 64.1 °F 64.1 °F 30.00 in NE 0.5 mph 2 mph 100% 0.06 in 49 W/m2
08:14 64.1 °F 64.1 °F 30.00 in NE 0.1 mph 1 mph 100% 0.06 in 51 W/m2
08:19 64.2 °F 64.2 °F 30.00 in NE 1.1 mph 5 mph 100% 0.04 in 58 W/m2
08:24 64.2 °F 64.2 °F 30.00 in NE 0.2 mph 5 mph 100% 0.04 in 60 W/m2
08:29 64.2 °F 64.2 °F 30.00 in NE 0.6 mph 2 mph 100% 0.04 in 53 W/m2
08:34 64.2 °F 64.2 °F 30.00 in NE 0.7 mph 3 mph 100% 0.04 in 49 W/m2
08:39 64.2 °F 64.2 °F 30.00 in NE 0.9 mph 3 mph 100% 0.03 in 51 W/m2
08:44 64.2 °F 64.2 °F 30.00 in NNE 0.1 mph 1 mph 100% 0.03 in 51 W/m2
08:49 64.2 °F 64.2 °F 30.00 in Calm   1 mph 100% 0.03 in 49 W/m2
08:54 64.3 °F 64.3 °F 30.00 in ENE 0.7 mph 3 mph 100% 0.04 in 53 W/m2
08:59 64.4 °F 64.4 °F 30.00 in NE 0.7 mph 3 mph 100% 0.04 in 63 W/m2
09:04 64.5 °F 64.5 °F 30.00 in ENE 0.7 mph 2 mph 100% 0.04 in 67 W/m2
09:09 64.5 °F 64.5 °F 30.00 in NE 0.6 mph 2 mph 100% 0.03 in 69 W/m2
09:14 64.5 °F 64.5 °F 30.00 in Calm   1 mph 100% 0.03 in 69 W/m2
09:19 64.5 °F 64.5 °F 30.00 in NE 0.4 mph 2 mph 100% 0.03 in 79 W/m2
09:24 64.5 °F 64.5 °F 30.00 in NE 0.2 mph 2 mph 100% 0.03 in 83 W/m2
09:29 64.5 °F 64.5 °F 30.00 in NE 0.1 mph 2 mph 100% 0.03 in 93 W/m2
09:34 64.6 °F 64.6 °F 30.00 in Calm   1 mph 100% 0.03 in 95 W/m2
09:39 64.7 °F 64.7 °F 30.00 in Calm   1 mph 100% 0.02 in 97 W/m2
09:44 64.7 °F 64.7 °F 30.00 in NE 0.1 mph 1 mph 100% 0.02 in 120 W/m2
09:49 64.8 °F 64.8 °F 30.00 in NE 0.6 mph 2 mph 100% 0.02 in 146 W/m2
09:54 64.9 °F 64.9 °F 30.00 in NE 0.7 mph 1 mph 100% 0.02 in 148 W/m2
09:59 65.1 °F 65.1 °F 30.00 in ENE 1.1 mph 3 mph 100% 0.02 in 148 W/m2
10:04 65.2 °F 65.2 °F 30.00 in ENE 1.2 mph 3 mph 100% 0.02 in 148 W/m2
10:09 65.3 °F 65.3 °F 30.00 in ENE 0.6 mph 3 mph 100% 0.01 in 148 W/m2
10:14 65.3 °F 65.3 °F 30.00 in NE 1 mph 2 mph 100% 0.01 in 130 W/m2
10:19 65.3 °F 65.3 °F 30.00 in NE 0.4 mph 3 mph 100% 0.01 in 132 W/m2
10:24 65.5 °F 65.5 °F 30.00 in ENE 0.3 mph 3 mph 100% 0.01 in 123 W/m2
10:29 65.6 °F 65.6 °F 30.00 in NNE 0.9 mph 3 mph 100% 0.00 in 125 W/m2
10:34 65.4 °F 65.4 °F 30.00 in NNE 0.6 mph 5 mph 100% 0.00 in 123 W/m2
10:39 65.3 °F 65.3 °F 30.00 in NE 0.2 mph 2 mph 100% 0.00 in 151 W/m2
10:44 65.4 °F 65.4 °F 30.00 in NE 0.7 mph 3 mph 100% 0.00 in 162 W/m2
10:49 65.5 °F 65.5 °F 30.00 in NE 1.3 mph 4 mph 100% 0.00 in 148 W/m2
10:54 65.7 °F 65.7 °F 30.00 in NE 0.5 mph 2 mph 100% 0.00 in 164 W/m2
10:59 66 °F 66 °F 30.00 in NE 1.1 mph 2 mph 100% 0.00 in 218 W/m2
11:04 66.2 °F 66.2 °F 29.99 in NE 1 mph 5 mph 100% 0.00 in 297 W/m2
11:09 66.3 °F 66.3 °F 29.99 in ENE 2.2 mph 4 mph 100% 0.00 in 377 W/m2
11:14 66.6 °F 66.6 °F 29.99 in ENE 1.9 mph 5 mph 100% 0.00 in 433 W/m2
11:19 67 °F 67 °F 29.99 in ENE 1.7 mph 5 mph 100% 0.00 in 364 W/m2
11:24 67 °F 67 °F 29.99 in ENE 2.8 mph 8 mph 100% 0.00 in 320 W/m2
11:29 67.1 °F 67.1 °F 29.99 in ENE 1.2 mph 3 mph 100% 0.00 in 297 W/m2
11:34 67.1 °F 67.1 °F 29.99 in ENE 1.3 mph 5 mph 100% 0.00 in 187 W/m2
11:39 66.9 °F 66.9 °F 29.99 in ENE 1.8 mph 5 mph 100% 0.00 in 162 W/m2
11:44 66.9 °F 66.9 °F 29.99 in NE 0.6 mph 3 mph 100% 0.00 in 160 W/m2
11:49 67.2 °F 67.2 °F 29.99 in NNE 0.4 mph 3 mph 100% 0.00 in 143 W/m2
11:54 67.3 °F 67.3 °F 29.99 in NE 0.4 mph 2 mph 100% 0.00 in 150 W/m2
11:59 67.4 °F 67.4 °F 29.99 in NE 0.4 mph 2 mph 100% 0.00 in 130 W/m2
12:04 67.4 °F 67.4 °F 29.98 in Calm   2 mph 100% 0.00 in 111 W/m2
12:09 67.6 °F 67.6 °F 29.98 in ENE 0.3 mph 1 mph 100% 0.00 in 116 W/m2
12:14 67.7 °F 67.7 °F 29.98 in Calm   1 mph 100% 0.00 in 128 W/m2
12:19 67.8 °F 67.8 °F 29.98 in North 0.4 mph 2 mph 100% 0.00 in 134 W/m2
12:24 67.8 °F 67.8 °F 29.98 in NNE 0.2 mph 1 mph 100% 0.00 in 128 W/m2
12:29 68 °F 68 °F 29.98 in Calm     100% 0.00 in 97 W/m2
12:34 68.1 °F 68.1 °F 29.98 in Calm     100% 0.00 in 97 W/m2
12:39 68.3 °F 68.3 °F 29.98 in NE 0.1 mph 1 mph 100% 0.00 in 93 W/m2
12:44 68.3 °F 68.3 °F 29.98 in Calm     100% 0.00 in 102 W/m2
12:49 68.4 °F 68.4 °F 29.97 in Calm     100% 0.01 in 99 W/m2
12:54 68.7 °F 68.7 °F 29.97 in Calm     100% 0.01 in 79 W/m2
12:59 68.8 °F 68.8 °F 29.97 in Calm     100% 0.01 in 67 W/m2
13:04 68.8 °F 68.8 °F 29.97 in Calm     100% 0.01 in 58 W/m2
13:09 68.6 °F 68.6 °F 29.97 in Calm     100% 0.02 in 86 W/m2
13:14 68.6 °F 68.6 °F 29.97 in Calm     100% 0.04 in 120 W/m2
13:19 68.8 °F 68.8 °F 29.97 in Calm     100% 0.05 in 153 W/m2
13:24 68.6 °F 68.6 °F 29.97 in NE 0.3 mph 1 mph 100% 0.06 in 187 W/m2
13:29 68.4 °F 68.4 °F 29.97 in NE 0.2 mph 2 mph 100% 0.06 in 223 W/m2
13:34 68.5 °F 68.5 °F 29.97 in NE 0.8 mph 2 mph 100% 0.07 in 273 W/m2
13:39 68.7 °F 68.7 °F 29.97 in East 0.7 mph 2 mph 100% 0.08 in 378 W/m2
13:44 68.8 °F 68.8 °F 29.97 in ENE 1 mph 2 mph 100% 0.09 in 350 W/m2
13:49 69 °F 69 °F 29.96 in East 0.9 mph 2 mph 100% 0.09 in 378 W/m2
13:54 68.9 °F 68.9 °F 29.96 in ESE 0.7 mph 3 mph 100% 0.09 in 362 W/m2
13:59 69.1 °F 69.1 °F 29.96 in ENE 3 mph 6 mph 100% 0.08 in 378 W/m2
14:04 69.5 °F 69.5 °F 29.96 in ENE 2.1 mph 6 mph 100% 0.08 in 331 W/m2
14:09 69.8 °F 69.8 °F 29.96 in NE 1.1 mph 5 mph 100% 0.08 in 303 W/m2
14:14 69.9 °F 69.9 °F 29.96 in NE 0.7 mph 3 mph 100% 0.08 in 213 W/m2
14:19 69.8 °F 69.8 °F 29.95 in ESE 0.6 mph 4 mph 100% 0.07 in 197 W/m2
14:24 69.8 °F 69.8 °F 29.95 in ENE 1.1 mph 5 mph 100% 0.07 in 194 W/m2
14:29 69.6 °F 69.3 °F 29.95 in ENE 1 mph 5 mph 99.1% 0.04 in 192 W/m2
14:34 69.6 °F 69.3 °F 29.95 in ENE 1.1 mph 3 mph 99% 0.04 in 178 W/m2
14:39 69.4 °F 69.1 °F 29.95 in NE 0.5 mph 2 mph 99% 0.03 in 234 W/m2
14:44 69.6 °F 69.2 °F 29.95 in NE 0.8 mph 3 mph 98.8% 0.03 in 232 W/m2
14:49 69.6 °F 69 °F 29.95 in ENE 0.5 mph 2 mph 98% 0.01 in 222 W/m2
14:54 69.7 °F 69 °F 29.95 in NE 0.4 mph 2 mph 97.5% 0.01 in 232 W/m2
14:59 69.6 °F 68.7 °F 29.95 in East 0.3 mph 2 mph 97% 0.00 in 253 W/m2
15:04 69.6 °F 68.7 °F 29.95 in East 0.5 mph 2 mph 97% 0.00 in 243 W/m2
15:09 70.1 °F 69.2 °F 29.95 in NE 0.4 mph 2 mph 97% 0.00 in 238 W/m2
15:14 70.4 °F 69.4 °F 29.95 in NE 0.6 mph 2 mph 96.7% 0.00 in 285 W/m2
15:19 70.8 °F 69.7 °F 29.95 in ENE 0.7 mph 2 mph 96.4% 0.00 in 354 W/m2
15:24 70.9 °F 69.7 °F 29.95 in Calm     95.9% 0.00 in 333 W/m2
15:29 70.9 °F 69.4 °F 29.95 in NNE 0.2 mph 2 mph 95% 0.00 in 310 W/m2
15:34 70.8 °F 69.4 °F 29.95 in Calm   1 mph 95.5% 0.00 in 143 W/m2
15:39 70.8 °F 69.4 °F 29.95 in NNE 0.1 mph 1 mph 95.3% 0.00 in 114 W/m2
15:44 70.8 °F 69.4 °F 29.95 in Calm   2 mph 95% 0.00 in 109 W/m2
15:49 70.7 °F 69.2 °F 29.95 in NE 0.1 mph 2 mph 95% 0.00 in 97 W/m2
15:54 70.4 °F 68.8 °F 29.95 in ENE 0.3 mph 2 mph 94.9% 0.00 in 79 W/m2
15:59 70.3 °F 68.8 °F 29.95 in NE 0.2 mph 2 mph 95% 0.00 in 77 W/m2
16:04 70.2 °F 68.7 °F 29.95 in ENE 0.3 mph 2 mph 95% 0.00 in 88 W/m2
16:09 70.2 °F 68.7 °F 29.95 in ENE 0.5 mph 2 mph 95.2% 0.00 in 86 W/m2
16:14 70.2 °F 69 °F 29.95 in ENE 0.7 mph 2 mph 96% 0.00 in 67 W/m2
16:19 69.9 °F 68.7 °F 29.95 in ENE 0.4 mph 2 mph 96% 0.00 in 72 W/m2
16:24 69.9 °F 69 °F 29.95 in ENE 0.2 mph 2 mph 96.9% 0.00 in 72 W/m2
16:29 69.9 °F 69 °F 29.95 in ENE 1 mph 2 mph 97% 0.00 in 74 W/m2
16:34 69.9 °F 69 °F 29.95 in ENE 0.3 mph 2 mph 97% 0.00 in 77 W/m2
16:39 69.8 °F 68.9 °F 29.95 in ENE 0.2 mph 1 mph 97% 0.00 in 77 W/m2
16:44 69.8 °F 69 °F 29.95 in NE 0.6 mph 3 mph 97.1% 0.00 in 65 W/m2
16:49 69.6 °F 68.8 °F 29.95 in NE 0.4 mph 3 mph 97.3% 0.00 in 72 W/m2
16:54 69.6 °F 68.9 °F 29.95 in NE 0.3 mph 2 mph 97.7% 0.00 in 74 W/m2
16:59 69.6 °F 69 °F 29.95 in NE 0.4 mph 2 mph 98% 0.00 in 84 W/m2
17:04 69.6 °F 69 °F 29.95 in NE 0.2 mph 2 mph 98% 0.00 in 84 W/m2
17:09 69.5 °F 68.9 °F 29.95 in NE 0.3 mph 2 mph 98% 0.00 in 46 W/m2
17:14 69.4 °F 68.7 °F 29.95 in NE 0.4 mph 2 mph 97.7% 0.00 in 42 W/m2
17:19 69.3 °F 68.6 °F 29.95 in NE 0.2 mph 2 mph 97.6% 0.00 in 46 W/m2
17:24 69.3 °F 68.6 °F 29.95 in ENE 0.5 mph 2 mph 97.6% 0.00 in 46 W/m2
17:29 69.1 °F 68.4 °F 29.95 in NE 0.9 mph 3 mph 97.5% 0.00 in 51 W/m2
17:34 68.9 °F 68.1 °F 29.95 in NE 0.6 mph 4 mph 97.3% 0.00 in 60 W/m2
17:39 68.8 °F 68.2 °F 29.95 in NE 0.7 mph 3 mph 97.8% 0.01 in 76 W/m2
17:44 68.8 °F 68.2 °F 29.95 in NE 0.6 mph 2 mph 98% 0.01 in 83 W/m2
17:49 68.8 °F 68.2 °F 29.95 in NE 1 mph 3 mph 98% 0.01 in 79 W/m2
17:54 68.8 °F 68.3 °F 29.95 in NE 0.1 mph 3 mph 98.3% 0.01 in 104 W/m2
17:59 68.8 °F 68.5 °F 29.95 in NE 0.8 mph 2 mph 99% 0.02 in 104 W/m2
18:04 68.8 °F 68.5 °F 29.95 in NE 0.3 mph 2 mph 99% 0.02 in 60 W/m2
18:09 68.7 °F 68.4 °F 29.95 in NE 0.7 mph 2 mph 99% 0.02 in 46 W/m2
18:14 68.6 °F 68.3 °F 29.95 in NE 0.1 mph 1 mph 99% 0.02 in 48 W/m2
18:19 68.6 °F 68.3 °F 29.95 in Calm     99% 0.02 in 51 W/m2
18:24 68.6 °F 68.5 °F 29.95 in NE 0.3 mph 2 mph 99.8% 0.02 in 65 W/m2
18:29 68.6 °F 68.6 °F 29.95 in ENE 0.5 mph 2 mph 100% 0.02 in 65 W/m2
18:34 68.6 °F 68.6 °F 29.95 in ENE 0.1 mph 1 mph 100% 0.02 in 46 W/m2
18:39 68.5 °F 68.5 °F 29.95 in ENE 0.2 mph 2 mph 100% 0.02 in 32 W/m2
18:44 68.4 °F 68.4 °F 29.96 in Calm   2 mph 100% 0.02 in 25 W/m2
18:49 68.3 °F 68.3 °F 29.96 in ENE 0.5 mph 2 mph 100% 0.01 in 21 W/m2
18:54 68.1 °F 68.1 °F 29.96 in ENE 0.4 mph 2 mph 100% 0.01 in 23 W/m2
18:59 68 °F 68 °F 29.96 in NE 0.4 mph 2 mph 100% 0.01 in 37 W/m2
19:04 67.9 °F 67.9 °F 29.95 in NE 0.4 mph 2 mph 100% 0.01 in 44 W/m2
19:09 67.9 °F 67.9 °F 29.95 in NNE 0.2 mph 1 mph 100% 0.00 in 39 W/m2
19:14 67.8 °F 67.8 °F 29.95 in NE 0.5 mph 3 mph 100% 0.00 in 37 W/m2
19:19 67.8 °F 67.8 °F 29.95 in NE 0.4 mph 2 mph 100% 0.00 in 35 W/m2
19:24 67.7 °F 67.7 °F 29.95 in NE 0.6 mph 2 mph 100% 0.00 in 26 W/m2
19:29 67.6 °F 67.6 °F 29.95 in NE 0.1 mph 2 mph 100% 0.00 in 25 W/m2
19:34 67.6 °F 67.6 °F 29.95 in NE 0.1 mph 1 mph 100% 0.00 in 21 W/m2
19:39 67.6 °F 67.6 °F 29.95 in Calm     100% 0.00 in 16 W/m2
19:44 67.4 °F 67.4 °F 29.96 in NE 0.5 mph 2 mph 100% 0.00 in 14 W/m2
19:49 67.4 °F 67.4 °F 29.96 in Calm     100% 0.00 in 14 W/m2
19:54 67.4 °F 67.4 °F 29.96 in Calm     100% 0.00 in 16 W/m2
19:59 67.4 °F 67.4 °F 29.96 in Calm     100% 0.00 in 14 W/m2
20:04 67.4 °F 67.4 °F 29.96 in Calm     100% 0.00 in 12 W/m2
20:09 67.4 °F 67.4 °F 29.96 in Calm     100% 0.00 in 11 W/m2
20:14 67.3 °F 67.3 °F 29.96 in Calm     100% 0.00 in 7 W/m2
20:19 67.3 °F 67.3 °F 29.96 in Calm     100% 0.00 in 5 W/m2
20:24 67.3 °F 67.3 °F 29.96 in Calm     100% 0.00 in 5 W/m2
20:29 67.3 °F 67.3 °F 29.96 in Calm     100% 0.00 in 0 W/m2
20:34 67.3 °F 67.3 °F 29.95 in Calm     100% 0.00 in 0 W/m2
20:39 67.1 °F 67.1 °F 29.95 in NNE 0.1 mph 1 mph 100% 0.00 in 0 W/m2
20:44 67.1 °F 67.1 °F 29.96 in Calm     100% 0.00 in 0 W/m2
20:49 67.1 °F 67.1 °F 29.96 in Calm     100% 0.00 in 0 W/m2
20:54 67.1 °F 67.1 °F 29.96 in Calm     100% 0.00 in 0 W/m2
20:59 67.1 °F 67.1 °F 29.96 in Calm     100% 0.00 in 0 W/m2
21:04 67.1 °F 67.1 °F 29.96 in Calm     100% 0.00 in 0 W/m2
21:09 67.1 °F 67.1 °F 29.96 in Calm     100% 0.00 in 0 W/m2
21:14 67.1 °F 67.1 °F 29.96 in Calm     100% 0.00 in 0 W/m2
21:19 66.9 °F 66.9 °F 29.96 in Calm     100% 0.00 in 0 W/m2
21:24 66.9 °F 66.9 °F 29.96 in NNE 0.1 mph 1 mph 100% 0.00 in 0 W/m2
21:29 66.9 °F 66.9 °F 29.96 in Calm     100% 0.00 in 0 W/m2
21:34 66.9 °F 66.9 °F 29.95 in NNE 0.1 mph 2 mph 100% 0.00 in 0 W/m2
21:39 66.9 °F 66.9 °F 29.95 in Calm     100% 0.00 in 0 W/m2
21:44 66.8 °F 66.8 °F 29.95 in NNE 0.2 mph 1 mph 100% 0.00 in 0 W/m2
21:49 66.8 °F 66.8 °F 29.95 in Calm     100% 0.00 in 0 W/m2
21:54 66.8 °F 66.8 °F 29.95 in Calm     100% 0.00 in 0 W/m2
21:59 66.8 °F 66.8 °F 29.95 in Calm     100% 0.00 in 0 W/m2
22:04 66.8 °F 66.8 °F 29.94 in Calm     100% 0.00 in 0 W/m2
22:09 66.7 °F 66.7 °F 29.94 in Calm     100% 0.00 in 0 W/m2
22:14 66.6 °F 66.6 °F 29.95 in Calm     100% 0.00 in 0 W/m2
22:19 66.6 °F 66.6 °F 29.95 in Calm     100% 0.00 in 0 W/m2
22:24 66.6 °F 66.6 °F 29.95 in Calm     100% 0.00 in 0 W/m2
22:29 66.4 °F 66.4 °F 29.95 in Calm     100% 0.00 in 0 W/m2
22:34 66.4 °F 66.4 °F 29.94 in Calm     100% 0.00 in 0 W/m2
22:39 66.3 °F 66.3 °F 29.94 in Calm     100% 0.00 in 0 W/m2
22:44 66.3 °F 66.3 °F 29.95 in Calm     100% 0.00 in 0 W/m2
22:49 66.3 °F 66.3 °F 29.95 in Calm     100% 0.00 in 0 W/m2
22:54 66.1 °F 66.1 °F 29.95 in Calm     100% 0.00 in 0 W/m2
22:59 66.2 °F 66.2 °F 29.95 in Calm     100% 0.00 in 0 W/m2
23:04 66.3 °F 66.3 °F 29.94 in Calm     100% 0.00 in 0 W/m2
23:09 66.3 °F 66.3 °F 29.94 in Calm     100% 0.00 in 0 W/m2
23:14 66.3 °F 66.3 °F 29.95 in Calm     100% 0.00 in 0 W/m2
23:19 66.3 °F 66.3 °F 29.95 in Calm     100% 0.00 in 0 W/m2
23:24 66.3 °F 66.3 °F 29.95 in Calm     100% 0.00 in 0 W/m2
23:29 66.4 °F 66.4 °F 29.95 in Calm     100% 0.00 in 0 W/m2
23:34 66.4 °F 66.4 °F 29.95 in Calm     100% 0.00 in 0 W/m2
23:39 66.4 °F 66.4 °F 29.95 in Calm     100% 0.00 in 0 W/m2
23:44 66.4 °F 66.4 °F 29.95 in Calm     100% 0.00 in 0 W/m2
23:49 66.4 °F 66.4 °F 29.95 in Calm     100% 0.00 in 0 W/m2
23:54 66.4 °F 66.4 °F 29.95 in Calm     100% 0.00 in 0 W/m2
23:59 66.4 °F 66.4 °F 29.95 in Calm     100% 0.00 in 0 W/m2
Lisbon, New Hampshire, USA
Compliments of Weather Underground - 4 mb